createdAt,value
2023-03-26T00:01:51.798Z,97297.59
2023-03-26T00:04:21.637Z,97289.97
2023-03-26T00:06:50.281Z,97292.44
2023-03-26T00:09:18.195Z,97294.56
2023-03-26T00:11:46.710Z,97290.41
2023-03-26T00:14:17.710Z,97293.38
2023-03-26T00:16:47.330Z,97288.44
2023-03-26T00:19:15.244Z,97289.53
2023-03-26T00:21:42.659Z,97299.00
2023-03-26T00:24:15.280Z,97296.38
2023-03-26T00:26:43.075Z,97292.25
2023-03-26T00:29:13.494Z,97290.88
2023-03-26T00:31:41.157Z,97290.56
2023-03-26T00:34:10.555Z,97304.28
2023-03-26T00:36:37.965Z,97303.44
2023-03-26T00:39:05.619Z,97296.97
2023-03-26T00:41:36.862Z,97306.41
2023-03-26T00:44:04.553Z,97302.75
2023-03-26T00:46:32.397Z,97303.38
2023-03-26T00:49:01.633Z,97294.72
2023-03-26T00:51:29.416Z,97294.91
2023-03-26T00:53:57.581Z,97286.91
2023-03-26T00:56:25.289Z,97276.91
2023-03-26T00:58:52.872Z,97272.22
2023-03-26T01:01:27.692Z,97266.53
2023-03-26T01:06:35.872Z,97263.59
2023-03-26T01:09:17.342Z,97252.09
2023-03-26T01:11:45.461Z,97258.56
2023-03-26T01:14:21.227Z,97255.31
2023-03-26T01:16:51.917Z,97243.88
2023-03-26T01:19:45.151Z,97238.44
2023-03-26T01:22:20.064Z,97239.19
2023-03-26T01:24:53.103Z,97236.50
2023-03-26T01:27:44.775Z,97229.25
2023-03-26T01:30:37.164Z,97230.00
2023-03-26T01:33:33.910Z,97220.59
2023-03-26T01:36:05.421Z,97216.69
2023-03-26T01:38:38.709Z,97219.19
2023-03-26T01:41:23.907Z,97211.91
2023-03-26T01:44:12.525Z,97209.38
2023-03-26T01:46:40.394Z,97203.63
2023-03-26T01:49:13.294Z,97199.88
2023-03-26T01:51:42.671Z,97193.34
2023-03-26T01:54:17.130Z,97189.13
2023-03-26T01:57:21.038Z,97195.63
2023-03-26T02:00:13.513Z,97187.78
2023-03-26T02:03:05.673Z,97187.34
2023-03-26T02:05:50.846Z,97184.81
2023-03-26T02:08:39.195Z,97173.78
2023-03-26T02:11:11.740Z,97165.75
2023-03-26T02:13:41.618Z,97159.03
2023-03-26T02:16:19.369Z,97155.47
2023-03-26T02:18:51.268Z,97143.09
2023-03-26T02:21:21.416Z,97137.31
2023-03-26T02:24:02.879Z,97135.47
2023-03-26T02:26:35.375Z,97129.78
2023-03-26T02:29:13.361Z,97119.66
2023-03-26T02:31:43.417Z,97119.09
2023-03-26T02:34:11.281Z,97119.63
2023-03-26T02:36:43.040Z,97120.31
2023-03-26T02:39:11.912Z,97114.84
2023-03-26T02:41:39.773Z,97113.88
2023-03-26T02:44:10.259Z,97108.28
2023-03-26T02:47:03.603Z,97101.84
2023-03-26T02:50:06.236Z,97096.84
2023-03-26T02:52:57.119Z,97104.97
2023-03-26T02:55:25.521Z,97099.44
2023-03-26T02:57:55.343Z,97094.44
2023-03-26T03:00:29.106Z,97101.41
2023-03-26T03:03:27.760Z,97103.00
2023-03-26T03:06:01.120Z,97101.56
2023-03-26T03:08:41.542Z,97079.66
2023-03-26T03:11:10.614Z,97076.72
2023-03-26T03:13:46.631Z,97081.44
2023-03-26T03:16:19.965Z,97083.28
2023-03-26T03:18:54.250Z,97076.00
2023-03-26T03:21:29.300Z,97063.63
2023-03-26T03:23:59.672Z,97064.31
2023-03-26T03:26:29.879Z,97066.13
2023-03-26T03:29:00.206Z,97059.63
2023-03-26T03:31:28.393Z,97055.56
2023-03-26T03:34:01.211Z,97047.63
2023-03-26T03:36:33.074Z,97049.25
2023-03-26T03:39:07.386Z,97045.88
2023-03-26T03:41:36.053Z,97036.09
2023-03-26T03:44:06.181Z,97034.44
2023-03-26T03:46:34.667Z,97024.06
2023-03-26T03:49:02.767Z,97020.66
2023-03-26T03:51:37.078Z,97017.56
2023-03-26T03:54:10.428Z,97011.44
2023-03-26T03:57:02.119Z,97005.91
2023-03-26T03:59:47.549Z,96997.34
2023-03-26T04:02:35.197Z,97002.75
2023-03-26T04:05:06.338Z,96989.31
2023-03-26T04:07:34.585Z,96987.72
2023-03-26T04:10:21.950Z,96994.75
2023-03-26T04:13:07.900Z,96986.28
2023-03-26T04:15:53.124Z,96989.22
2023-03-26T04:18:22.459Z,96993.53
2023-03-26T04:20:50.812Z,96997.66
2023-03-26T04:23:26.661Z,96987.16
2023-03-26T04:26:04.614Z,96973.66
2023-03-26T04:29:02.795Z,96966.06
2023-03-26T04:31:31.999Z,96961.75
2023-03-26T04:34:13.630Z,96953.09
2023-03-26T04:36:54.649Z,96954.19
2023-03-26T04:39:29.231Z,96941.50
2023-03-26T04:42:15.309Z,96945.81
2023-03-26T04:44:54.841Z,96929.59
2023-03-26T04:47:23.511Z,96927.88
2023-03-26T04:49:50.990Z,96927.03
2023-03-26T04:52:18.944Z,96928.06
2023-03-26T04:54:58.676Z,96913.38
2023-03-26T04:57:37.908Z,96916.03
2023-03-26T05:00:20.446Z,96910.19
2023-03-26T05:02:56.120Z,96892.88
2023-03-26T05:05:24.700Z,96892.59
2023-03-26T05:07:52.488Z,96876.84
2023-03-26T05:10:21.717Z,96877.88
2023-03-26T05:12:53.345Z,96877.59
2023-03-26T05:15:25.617Z,96875.72
2023-03-26T05:18:11.791Z,96877.25
2023-03-26T05:20:45.215Z,96875.03
2023-03-26T05:23:13.266Z,96877.31
2023-03-26T05:25:47.792Z,96881.44
2023-03-26T05:28:24.296Z,96870.66
2023-03-26T05:30:56.598Z,96870.88
2023-03-26T05:33:26.715Z,96883.72
2023-03-26T05:36:04.417Z,96868.56
2023-03-26T05:38:33.576Z,96873.22
2023-03-26T05:41:07.022Z,96862.88
2023-03-26T05:43:36.370Z,96861.16
2023-03-26T05:46:11.124Z,96852.50
2023-03-26T05:48:39.241Z,96843.91
2023-03-26T05:51:07.872Z,96850.97
2023-03-26T05:53:35.826Z,96841.50
2023-03-26T05:56:21.668Z,96840.22
2023-03-26T05:59:08.045Z,96840.72
2023-03-26T06:01:54.540Z,96836.75
2023-03-26T06:04:42.920Z,96821.28
2023-03-26T06:07:29.281Z,96825.06
2023-03-26T06:10:18.346Z,96813.00
2023-03-26T06:12:46.823Z,96808.66
2023-03-26T06:15:14.384Z,96798.94
2023-03-26T06:17:48.006Z,96805.75
2023-03-26T06:20:33.426Z,96799.72
2023-03-26T06:23:05.320Z,96791.75
2023-03-26T06:25:53.073Z,96800.66
2023-03-26T06:28:44.723Z,96805.06
2023-03-26T06:31:32.118Z,96801.13
2023-03-26T06:34:22.627Z,96799.38
2023-03-26T06:36:52.629Z,96788.53
2023-03-26T06:39:21.620Z,96763.56
2023-03-26T06:42:08.899Z,96757.88
2023-03-26T06:44:54.678Z,96756.47
2023-03-26T06:47:40.817Z,96738.41
2023-03-26T06:50:08.955Z,96738.81
2023-03-26T06:52:41.874Z,96738.00
2023-03-26T06:55:28.311Z,96729.38
2023-03-26T06:58:28.047Z,96735.09
2023-03-26T07:01:14.018Z,96731.47
2023-03-26T07:04:00.592Z,96723.47
2023-03-26T07:07:06.987Z,96726.38
2023-03-26T07:09:53.040Z,96722.13
2023-03-26T07:12:42.432Z,96714.13
2023-03-26T07:15:22.062Z,96721.56
2023-03-26T07:18:18.889Z,96724.50
2023-03-26T07:20:47.249Z,96707.56
2023-03-26T07:23:20.081Z,96695.31
2023-03-26T07:25:57.978Z,96690.00
2023-03-26T07:29:04.748Z,96694.63
2023-03-26T07:32:22.113Z,96685.28
2023-03-26T07:36:01.328Z,96685.66
2023-03-26T07:39:36.417Z,96669.13
2023-03-26T07:43:21.542Z,96664.75
2023-03-26T07:46:33.950Z,96659.78
2023-03-26T07:49:17.854Z,96654.16
2023-03-26T07:52:01.461Z,96658.28
2023-03-26T07:54:57.227Z,96653.59
2023-03-26T07:58:08.312Z,96659.91
2023-03-26T08:01:04.501Z,96667.44
2023-03-26T08:04:24.041Z,96661.00
2023-03-26T08:07:15.584Z,96652.31
2023-03-26T08:10:16.225Z,96648.91
2023-03-26T08:13:21.608Z,96647.00
2023-03-26T08:16:08.869Z,96645.38
2023-03-26T08:19:06.154Z,96636.69
2023-03-26T08:21:43.587Z,96636.28
2023-03-26T08:24:27.507Z,96637.56
2023-03-26T08:27:13.683Z,96639.81
2023-03-26T08:30:14.917Z,96635.91
2023-03-26T08:32:42.660Z,96629.56
2023-03-26T08:35:13.509Z,96619.47
2023-03-26T08:37:40.824Z,96621.03
2023-03-26T08:40:09.607Z,96618.22
2023-03-26T08:43:24.568Z,96611.78
2023-03-26T08:46:12.868Z,96605.53
2023-03-26T08:49:03.786Z,96596.63
2023-03-26T08:52:03.849Z,96603.28
2023-03-26T08:55:08.506Z,96596.38
2023-03-26T08:57:56.028Z,96596.31
2023-03-26T09:00:48.002Z,96590.75
2023-03-26T09:03:39.389Z,96585.16
2023-03-26T09:06:34.114Z,96583.06
2023-03-26T09:09:18.807Z,96584.75
2023-03-26T09:12:17.906Z,96580.00
2023-03-26T09:15:27.221Z,96579.94
2023-03-26T09:17:59.660Z,96573.44
2023-03-26T09:21:09.444Z,96577.66
2023-03-26T09:24:27.665Z,96570.63
2023-03-26T09:27:14.515Z,96590.66
2023-03-26T09:29:53.695Z,96584.50
2023-03-26T09:32:36.291Z,96569.88
2023-03-26T09:35:14.241Z,96576.69
2023-03-26T09:38:03.353Z,96594.13
2023-03-26T09:41:01.442Z,96609.16
2023-03-26T09:44:02.911Z,96600.31
2023-03-26T09:46:58.277Z,96574.41
2023-03-26T09:49:36.394Z,96563.47
2023-03-26T09:52:25.469Z,96569.22
2023-03-26T09:55:24.252Z,96571.13
2023-03-26T09:58:04.068Z,96557.41
2023-03-26T10:00:47.078Z,96558.44
2023-03-26T10:03:26.742Z,96556.69
2023-03-26T10:06:12.893Z,96559.94
2023-03-26T10:09:22.308Z,96570.50
2023-03-26T10:12:08.536Z,96567.94
2023-03-26T10:14:56.786Z,96556.47
2023-03-26T10:18:01.743Z,96562.09
2023-03-26T10:20:59.244Z,96562.00
2023-03-26T10:23:45.357Z,96565.03
2023-03-26T10:26:34.107Z,96552.56
2023-03-26T10:29:31.909Z,96556.38
2023-03-26T10:32:11.408Z,96550.00
2023-03-26T10:34:38.733Z,96551.22
2023-03-26T10:37:51.651Z,96541.09
2023-03-26T10:41:01.525Z,96529.75
2023-03-26T10:44:07.395Z,96533.41
2023-03-26T10:47:12.648Z,96555.44
2023-03-26T10:49:48.973Z,96552.91
2023-03-26T10:52:23.746Z,96555.66
2023-03-26T10:55:12.046Z,96543.59
2023-03-26T10:58:00.465Z,96547.31
2023-03-26T11:00:29.157Z,96553.19
2023-03-26T11:03:30.692Z,96546.25
2023-03-26T11:06:31.932Z,96544.09
2023-03-26T11:09:28.221Z,96550.63
2023-03-26T11:12:32.106Z,96544.56
2023-03-26T11:15:25.936Z,96536.78
2023-03-26T11:18:34.534Z,96523.16
2023-03-26T11:21:27.993Z,96533.22
2023-03-26T11:24:04.895Z,96534.28
2023-03-26T11:27:15.899Z,96519.59
2023-03-26T11:30:38.111Z,96505.53
2023-03-26T11:33:18.419Z,96502.50
2023-03-26T11:35:55.661Z,96490.16
2023-03-26T11:38:54.038Z,96487.13
2023-03-26T11:41:31.121Z,96497.38
2023-03-26T11:44:19.520Z,96494.41
2023-03-26T11:46:49.662Z,96484.06
2023-03-26T11:49:20.745Z,96476.56
2023-03-26T11:51:49.030Z,96483.22
2023-03-26T11:54:17.880Z,96486.59
2023-03-26T11:57:05.245Z,96484.66
2023-03-26T11:59:58.248Z,96480.31
2023-03-26T12:02:39.934Z,96478.78
2023-03-26T12:05:33.502Z,96478.44
2023-03-26T12:08:03.815Z,96498.63
2023-03-26T12:10:37.637Z,96507.53
2023-03-26T12:13:36.494Z,96536.19
2023-03-26T12:16:22.708Z,96534.56
2023-03-26T12:19:19.039Z,96528.97
2023-03-26T12:21:50.079Z,96505.50
2023-03-26T12:24:31.790Z,96509.13
2023-03-26T12:27:20.315Z,96506.69
2023-03-26T12:30:09.356Z,96519.53
2023-03-26T12:32:46.101Z,96534.19
2023-03-26T12:35:30.160Z,96547.31
2023-03-26T12:38:25.461Z,96559.09
2023-03-26T12:43:40.266Z,96532.16
2023-03-26T12:44:47.437Z,96517.13
2023-03-26T12:48:01.350Z,96506.50
2023-03-26T12:50:15.757Z,96481.91
2023-03-26T12:52:55.621Z,96485.50
2023-03-26T12:56:00.657Z,96477.84
2023-03-26T12:59:01.080Z,96467.78
2023-03-26T13:01:54.769Z,96467.41
2023-03-26T13:04:58.463Z,96462.31
2023-03-26T13:08:07.568Z,96475.44
2023-03-26T13:10:56.279Z,96456.22
2023-03-26T13:14:07.704Z,96443.25
2023-03-26T13:17:05.019Z,96441.00
2023-03-26T13:19:53.246Z,96444.94
2023-03-26T13:22:52.984Z,96437.59
2023-03-26T13:25:51.823Z,96439.00
2023-03-26T13:28:48.964Z,96436.94
2023-03-26T13:31:45.975Z,96437.75
2023-03-26T13:34:46.700Z,96431.81
2023-03-26T13:37:37.432Z,96412.53
2023-03-26T13:40:13.748Z,96406.94
2023-03-26T13:43:12.076Z,96410.09
2023-03-26T13:46:19.860Z,96419.19
2023-03-26T13:48:58.527Z,96428.75
2023-03-26T13:51:37.568Z,96397.75
2023-03-26T13:54:30.596Z,96408.81
2023-03-26T13:57:33.186Z,96401.06
2023-03-26T14:00:13.148Z,96408.56
2023-03-26T14:02:42.596Z,96399.22
2023-03-26T14:05:31.455Z,96407.50
2023-03-26T14:07:59.071Z,96395.13
2023-03-26T14:10:41.250Z,96394.13
2023-03-26T14:13:29.734Z,96388.19
2023-03-26T14:16:06.449Z,96390.25
2023-03-26T14:18:49.473Z,96383.56
2023-03-26T14:21:49.486Z,96385.78
2023-03-26T14:24:46.641Z,96381.56
2023-03-26T14:27:50.985Z,96380.34
2023-03-26T14:30:24.315Z,96374.47
2023-03-26T14:33:34.240Z,96371.53
2023-03-26T14:36:25.902Z,96371.00
2023-03-26T14:39:18.888Z,96380.34
2023-03-26T14:41:54.016Z,96379.50
2023-03-26T14:44:47.829Z,96387.22
2023-03-26T14:47:24.380Z,96382.91
2023-03-26T14:49:55.333Z,96379.75
2023-03-26T14:52:50.878Z,96383.72
2023-03-26T14:55:48.752Z,96390.94
2023-03-26T14:58:31.212Z,96401.03
2023-03-26T15:01:25.892Z,96401.31
2023-03-26T15:04:11.824Z,96438.38
2023-03-26T15:06:58.373Z,96452.81
2023-03-26T15:09:32.236Z,96462.56
2023-03-26T15:12:52.401Z,96473.44
2023-03-26T15:15:54.338Z,96484.13
2023-03-26T15:18:50.638Z,96454.38
2023-03-26T15:21:36.827Z,96441.44
2023-03-26T15:24:07.190Z,96452.22
2023-03-26T15:27:01.064Z,96463.78
2023-03-26T15:29:29.982Z,96471.56
2023-03-26T15:32:34.867Z,96502.72
2023-03-26T15:35:02.674Z,96500.69
2023-03-26T15:38:09.303Z,96501.47
2023-03-26T15:40:44.714Z,96496.44
2023-03-26T15:43:18.267Z,96484.88
2023-03-26T15:45:47.968Z,96484.69
2023-03-26T15:48:37.425Z,96491.34
2023-03-26T15:51:46.665Z,96473.81
2023-03-26T15:54:45.979Z,96489.25
2023-03-26T15:57:33.065Z,96487.19
2023-03-26T16:00:23.192Z,96491.00
2023-03-26T16:02:53.708Z,96479.84
2023-03-26T16:05:25.343Z,96493.78
2023-03-26T16:08:05.084Z,96494.81
2023-03-26T16:10:58.833Z,96482.03
2023-03-26T16:13:33.981Z,96481.03
2023-03-26T16:16:04.458Z,96480.13
2023-03-26T16:18:50.948Z,96477.22
2023-03-26T16:21:38.858Z,96468.53
2023-03-26T16:24:06.151Z,96474.13
2023-03-26T16:26:51.494Z,96471.72
2023-03-26T16:29:22.341Z,96471.09
2023-03-26T16:32:14.184Z,96471.13
2023-03-26T16:35:08.660Z,96472.44
2023-03-26T16:37:37.778Z,96482.75
2023-03-26T16:40:23.532Z,96485.69
2023-03-26T16:43:09.052Z,96490.25
2023-03-26T16:46:04.359Z,96492.69
2023-03-26T16:49:08.279Z,96501.03
2023-03-26T16:51:59.782Z,96510.88
2023-03-26T16:54:39.780Z,96512.50
2023-03-26T16:57:38.528Z,96509.44
2023-03-26T17:00:27.581Z,96518.63
2023-03-26T17:03:15.356Z,96522.66
2023-03-26T17:05:57.774Z,96530.16
2023-03-26T17:08:36.435Z,96515.88
2023-03-26T17:11:36.172Z,96530.53
2023-03-26T17:14:28.564Z,96526.88
2023-03-26T17:17:17.062Z,96537.38
2023-03-26T17:20:11.720Z,96548.31
2023-03-26T17:22:41.048Z,96545.59
2023-03-26T17:25:37.791Z,96545.41
2023-03-26T17:28:42.422Z,96543.31
2023-03-26T17:31:26.380Z,96549.22
2023-03-26T17:33:56.564Z,96537.34
2023-03-26T17:36:31.738Z,96543.28
2023-03-26T17:39:38.605Z,96534.66
2023-03-26T17:42:37.506Z,96547.25
2023-03-26T17:45:22.090Z,96528.88
2023-03-26T17:47:54.223Z,96530.47
2023-03-26T17:50:34.907Z,96535.31
2023-03-26T17:53:23.207Z,96541.50
2023-03-26T17:55:51.665Z,96556.06
2023-03-26T17:58:34.079Z,96539.09
2023-03-26T18:01:02.071Z,96537.50
2023-03-26T18:03:34.151Z,96540.66
2023-03-26T18:06:07.619Z,96540.69
2023-03-26T18:08:47.156Z,96544.53
2023-03-26T18:11:30.008Z,96539.16
2023-03-26T18:14:32.177Z,96543.13
2023-03-26T18:17:01.222Z,96537.28
2023-03-26T18:19:29.421Z,96533.72
2023-03-26T18:22:04.403Z,96531.94
2023-03-26T18:24:39.139Z,96527.53
2023-03-26T18:27:15.621Z,96525.28
2023-03-26T18:29:56.462Z,96522.41
2023-03-26T18:32:33.415Z,96529.41
2023-03-26T18:35:13.525Z,96522.41
2023-03-26T18:37:44.700Z,96540.50
2023-03-26T18:40:16.713Z,96546.00
2023-03-26T18:42:45.572Z,96553.03
2023-03-26T18:45:24.912Z,96545.56
2023-03-26T18:48:07.152Z,96532.72
2023-03-26T18:50:40.778Z,96534.69
2023-03-26T18:53:16.789Z,96545.78
2023-03-26T18:55:44.523Z,96530.13
2023-03-26T18:58:30.058Z,96536.03
2023-03-26T19:01:01.663Z,96527.44
2023-03-26T19:03:35.635Z,96530.72
2023-03-26T19:06:08.213Z,96526.28
2023-03-26T19:08:38.865Z,96525.00
2023-03-26T19:11:10.714Z,96528.06
2023-03-26T19:13:42.491Z,96525.69
2023-03-26T19:16:25.840Z,96533.53
2023-03-26T19:18:53.379Z,96531.19
2023-03-26T19:21:23.221Z,96522.56
2023-03-26T19:23:51.913Z,96523.38
2023-03-26T19:26:19.377Z,96518.19
2023-03-26T19:28:53.219Z,96515.00
2023-03-26T19:31:24.317Z,96529.41
2023-03-26T19:34:18.082Z,96516.09
2023-03-26T19:37:01.418Z,96516.41
2023-03-26T19:39:46.356Z,96524.94
2023-03-26T19:42:20.695Z,96515.56
2023-03-26T19:44:49.348Z,96521.31
2023-03-26T19:47:39.126Z,96521.22
2023-03-26T19:50:29.787Z,96526.63
2023-03-26T19:53:25.332Z,96506.84
2023-03-26T19:56:13.448Z,96505.66
2023-03-26T19:58:41.667Z,96509.25
2023-03-26T20:01:29.597Z,96506.78
2023-03-26T20:04:00.316Z,96513.66
2023-03-26T20:06:43.261Z,96513.19
2023-03-26T20:09:12.336Z,96501.72
2023-03-26T20:11:40.711Z,96499.06
2023-03-26T20:14:17.284Z,96501.66
2023-03-26T20:16:45.805Z,96501.19
2023-03-26T20:19:15.089Z,96510.25
2023-03-26T20:21:44.204Z,96514.97
2023-03-26T20:24:14.767Z,96510.34
2023-03-26T20:26:42.570Z,96507.78
2023-03-26T20:29:10.245Z,96523.28
2023-03-26T20:31:38.296Z,96507.22
2023-03-26T20:34:20.371Z,96507.13
2023-03-26T20:36:53.952Z,96510.34
2023-03-26T20:39:23.239Z,96506.28
2023-03-26T20:41:51.292Z,96500.31
2023-03-26T20:44:20.974Z,96507.41
2023-03-26T20:46:49.707Z,96492.69
2023-03-26T20:49:18.037Z,96481.28
2023-03-26T20:51:46.505Z,96494.59
2023-03-26T20:54:23.151Z,96494.09
2023-03-26T20:56:52.329Z,96485.50
2023-03-26T20:59:26.384Z,96498.38
2023-03-26T21:01:56.636Z,96491.88
2023-03-26T21:04:24.849Z,96492.34
2023-03-26T21:06:57.650Z,96488.13
2023-03-26T21:09:34.921Z,96494.88
2023-03-26T21:12:18.885Z,96495.44
2023-03-26T21:14:46.669Z,96493.69
2023-03-26T21:17:20.000Z,96500.97
2023-03-26T21:19:47.983Z,96501.78
2023-03-26T21:22:30.731Z,96501.72
2023-03-26T21:25:17.106Z,96513.53
2023-03-26T21:28:06.093Z,96508.56
2023-03-26T21:30:34.526Z,96502.56
2023-03-26T21:33:02.251Z,96496.09
2023-03-26T21:35:30.208Z,96502.84
2023-03-26T21:37:57.941Z,96497.28
2023-03-26T21:40:25.837Z,96505.69
2023-03-26T21:42:54.694Z,96509.47
2023-03-26T21:45:23.232Z,96504.94
2023-03-26T21:47:50.966Z,96500.00
2023-03-26T21:50:22.140Z,96511.94
2023-03-26T21:52:51.370Z,96519.28
2023-03-26T21:55:24.267Z,96523.88
2023-03-26T21:58:36.183Z,96521.28
2023-03-26T22:01:15.684Z,96535.78
2023-03-26T22:04:13.597Z,96546.44
2023-03-26T22:07:14.082Z,96542.47
2023-03-26T22:09:43.647Z,96559.56
2023-03-26T22:12:11.344Z,96550.81
2023-03-26T22:14:38.876Z,96567.13
2023-03-26T22:17:06.277Z,96556.03
2023-03-26T22:19:34.638Z,96537.44
2023-03-26T22:22:02.989Z,96540.31
2023-03-26T22:24:30.281Z,96542.50
2023-03-26T22:26:57.624Z,96540.53
2023-03-26T22:29:24.957Z,96554.25
2023-03-26T22:31:52.367Z,96565.44
2023-03-26T22:34:19.884Z,96574.38
2023-03-26T22:36:47.245Z,96564.69
2023-03-26T22:39:14.616Z,96556.25
2023-03-26T22:41:41.996Z,96569.53
2023-03-26T22:44:19.902Z,96571.25
2023-03-26T22:46:49.387Z,96577.53
2023-03-26T22:49:17.702Z,96582.69
2023-03-26T22:51:45.116Z,96576.97
2023-03-26T22:54:12.382Z,96566.66
2023-03-26T22:56:39.757Z,96578.28
2023-03-26T22:59:07.226Z,96579.25
2023-03-26T23:01:34.822Z,96584.81
2023-03-26T23:04:02.380Z,96585.09
2023-03-26T23:06:29.877Z,96607.81
2023-03-26T23:08:57.208Z,96586.47
2023-03-26T23:11:24.690Z,96595.97
2023-03-26T23:13:52.020Z,96591.53
2023-03-26T23:16:21.436Z,96594.16
2023-03-26T23:18:49.080Z,96605.81
2023-03-26T23:21:21.694Z,96605.47
2023-03-26T23:23:52.101Z,96603.16
2023-03-26T23:26:19.691Z,96616.75
2023-03-26T23:28:47.797Z,96621.56
2023-03-26T23:31:15.083Z,96613.53
2023-03-26T23:33:50.290Z,96630.22
2023-03-26T23:36:20.023Z,96619.72
2023-03-26T23:38:48.838Z,96627.50
2023-03-26T23:41:21.937Z,96625.38
2023-03-26T23:43:56.461Z,96629.81
2023-03-26T23:46:30.313Z,96640.78
2023-03-26T23:49:00.006Z,96638.94
2023-03-26T23:51:27.613Z,96635.19
2023-03-26T23:53:55.060Z,96635.50
2023-03-26T23:56:22.476Z,96642.97
2023-03-26T23:58:50.194Z,96647.41
